Time;durP1;ratioP1;P1;durP2;ratioP2;P2;SDS_P1;SDS_P2;PMS_P1;PMS_P2;Temp;Humidity;BMP_temperature;BMP_pressure;BME280_temperature;BME280_humidity;BME280_pressure;Samples;Min_cycle;Max_cycle;Signal;HPM_P1;HPM_P2
2023/05/25 00:00:12;;;;;;;541.58;486.08;;;;;;;;;;5044737;28;20408;-61
2023/05/25 00:02:45;;;;;;;539.90;487.15;;;;;;;;;;5044724;28;20476;-58
2023/05/25 00:05:10;;;;;;;550.55;495.60;;;;;;;;;;5044551;28;20053;-61
2023/05/25 00:07:36;;;;;;;531.17;465.42;;;;;;;;;;5044551;28;20041;-60
2023/05/25 00:10:01;;;;;;;704.60;483.70;;;;;;;;;;5044506;28;20615;-60
2023/05/25 00:12:27;;;;;;;522.88;467.95;;;;;;;;;;5044476;28;20029;-60
2023/05/25 00:14:52;;;;;;;492.13;443.83;;;;;;;;;;5044590;28;20021;-57
2023/05/25 00:17:17;;;;;;;461.50;415.73;;;;;;;;;;5044747;28;20114;-61
2023/05/25 00:19:43;;;;;;;360.50;327.30;;;;;;;;;;5048498;28;20504;-59
2023/05/25 00:22:09;;;;;;;354.30;320.13;;;;;;;;;;5064463;28;20388;-60
2023/05/25 00:24:35;;;;;;;347.85;314.55;;;;;;;;;;5052429;28;20029;-60
2023/05/25 00:27:01;;;;;;;333.05;301.40;;;;;;;;;;5044816;28;20024;-59
2023/05/25 00:29:26;;;;;;;343.95;312.52;;;;;;;;;;5044635;28;20028;-61
2023/05/25 00:31:52;;;;;;;334.70;302.80;;;;;;;;;;4992572;28;20044;-60
2023/05/25 00:34:17;;;;;;;385.60;351.58;;;;;;;;;;5044684;28;20407;-59
2023/05/25 00:36:42;;;;;;;320.92;291.45;;;;;;;;;;5025443;28;20029;-61
2023/05/25 00:39:08;;;;;;;314.10;283.95;;;;;;;;;;5044965;28;20119;-60
2023/05/25 00:41:37;;;;;;;300.45;274.35;;;;;;;;;;5044056;28;20028;-61
2023/05/25 00:44:02;;;;;;;315.00;286.77;;;;;;;;;;5026153;28;20465;-60
2023/05/25 00:46:28;;;;;;;412.27;375.33;;;;;;;;;;5043935;28;20024;-61
2023/05/25 00:48:55;;;;;;;419.73;382.92;;;;;;;;;;5044499;28;20675;-60
2023/05/25 00:51:20;;;;;;;423.92;386.98;;;;;;;;;;5026169;28;20028;-61
2023/05/25 00:53:45;;;;;;;419.95;383.75;;;;;;;;;;5044099;28;20389;-59
2023/05/25 00:56:16;;;;;;;359.65;326.45;;;;;;;;;;5043824;28;20067;-60
2023/05/25 00:58:43;;;;;;;346.08;312.65;;;;;;;;;;5044122;28;20469;-60
2023/05/25 01:01:12;;;;;;;364.20;331.35;;;;;;;;;;5043778;28;20029;-60
2023/05/25 01:03:40;;;;;;;337.33;305.03;;;;;;;;;;5043800;28;20025;-60
2023/05/25 01:06:11;;;;;;;307.90;278.00;;;;;;;;;;5044036;28;20504;-61
2023/05/25 01:08:38;;;;;;;313.42;284.17;;;;;;;;;;5044253;28;20032;-61
2023/05/25 01:11:05;;;;;;;326.48;295.52;;;;;;;;;;5043901;28;20024;-61
2023/05/25 01:13:30;;;;;;;330.00;296.38;;;;;;;;;;5043779;28;20025;-62
2023/05/25 01:15:56;;;;;;;358.73;321.75;;;;;;;;;;5043792;28;20033;-60
2023/05/25 01:18:22;;;;;;;353.63;316.20;;;;;;;;;;5043826;28;20409;-60
2023/05/25 01:20:50;;;;;;;434.77;391.80;;;;;;;;;;5056475;28;20020;-59
2023/05/25 01:23:19;;;;;;;498.70;445.77;;;;;;;;;;5062220;28;20306;-60
2023/05/25 01:25:46;;;;;;;485.48;431.90;;;;;;;;;;5043839;28;20025;-61
2023/05/25 01:28:19;;;;;;;498.48;444.13;;;;;;;;;;5042940;28;20101;-61
2023/05/25 01:30:45;;;;;;;504.77;450.77;;;;;;;;;;5043437;28;20427;-61
2023/05/25 01:33:11;;;;;;;448.13;395.42;;;;;;;;;;5043537;28;20029;-61
2023/05/25 01:35:37;;;;;;;432.63;328.25;;;;;;;;;;5043345;28;20098;-60
2023/05/25 01:38:03;;;;;;;456.60;333.48;;;;;;;;;;5043677;28;20448;-61
2023/05/25 01:40:28;;;;;;;445.27;321.88;;;;;;;;;;5043482;28;20162;-60
2023/05/25 01:42:53;;;;;;;429.08;319.88;;;;;;;;;;5024132;28;20416;-60
2023/05/25 01:45:19;;;;;;;414.48;325.27;;;;;;;;;;5042873;28;20072;-60
2023/05/25 01:47:56;;;;;;;434.88;325.40;;;;;;;;;;5043517;28;20035;-61
2023/05/25 01:50:23;;;;;;;432.67;318.83;;;;;;;;;;5043362;28;20511;-60
2023/05/25 01:52:50;;;;;;;463.08;322.70;;;;;;;;;;5043152;28;20472;-60
2023/05/25 01:55:17;;;;;;;480.00;317.42;;;;;;;;;;5042740;28;20036;-60
2023/05/25 01:57:44;;;;;;;495.98;317.63;;;;;;;;;;5006973;28;20041;-61
2023/05/25 02:00:10;;;;;;;478.40;319.95;;;;;;;;;;5042727;28;20025;-58
2023/05/25 02:02:37;;;;;;;508.40;331.85;;;;;;;;;;5043383;28;20483;-61
2023/05/25 02:05:02;;;;;;;532.33;399.33;;;;;;;;;;5043282;28;20056;-60
2023/05/25 02:07:27;;;;;;;537.92;402.02;;;;;;;;;;5043153;28;20545;-60
2023/05/25 02:09:53;;;;;;;575.15;429.15;;;;;;;;;;5043176;28;20056;-60
2023/05/25 02:12:18;;;;;;;546.42;401.90;;;;;;;;;;5043024;28;20419;-61
2023/05/25 02:14:47;;;;;;;530.22;326.80;;;;;;;;;;5043518;28;20032;-57
2023/05/25 02:17:12;;;;;;;524.08;343.83;;;;;;;;;;5042915;28;20441;-60
2023/05/25 02:19:38;;;;;;;515.13;305.73;;;;;;;;;;4994453;28;20106;-60
2023/05/25 02:22:03;;;;;;;516.58;335.08;;;;;;;;;;5063044;28;20025;-57
2023/05/25 02:24:28;;;;;;;486.50;311.02;;;;;;;;;;5051793;28;20028;-60
2023/05/25 02:26:53;;;;;;;508.45;318.95;;;;;;;;;;5043324;28;20131;-60
2023/05/25 02:29:19;;;;;;;512.60;298.90;;;;;;;;;;5042784;28;20469;-60
2023/05/25 02:31:44;;;;;;;554.75;360.98;;;;;;;;;;5042956;28;20102;-60
2023/05/25 02:34:10;;;;;;;515.50;303.85;;;;;;;;;;5043151;28;20019;-60
2023/05/25 02:36:35;;;;;;;489.88;312.05;;;;;;;;;;5042945;28;20052;-60
2023/05/25 02:39:01;;;;;;;483.98;309.45;;;;;;;;;;5043481;28;20116;-60
2023/05/25 02:41:26;;;;;;;470.25;297.25;;;;;;;;;;5046556;28;20352;-61
2023/05/25 02:43:52;;;;;;;508.38;295.73;;;;;;;;;;5046595;28;20027;-59
2023/05/25 02:46:17;;;;;;;573.33;308.33;;;;;;;;;;5046598;28;20381;-60
2023/05/25 02:48:43;;;;;;;643.28;308.55;;;;;;;;;;5046270;28;20025;-61
2023/05/25 02:51:08;;;;;;;629.47;300.67;;;;;;;;;;5046367;28;20020;-60
2023/05/25 02:53:33;;;;;;;84.95;77.40;;;;;;;;;;5010428;28;20520;-60
2023/05/25 02:56:00;;;;;;;43.42;38.08;;;;;;;;;;5045964;28;20021;-60
2023/05/25 02:58:26;;;;;;;27.13;19.95;;;;;;;;;;5046285;28;20056;-60
2023/05/25 03:00:53;;;;;;;31.00;15.90;;;;;;;;;;5045961;28;20028;-61
2023/05/25 03:03:18;;;;;;;28.73;15.57;;;;;;;;;;5046358;28;20013;-61
2023/05/25 03:05:43;;;;;;;32.47;15.95;;;;;;;;;;5046073;28;20032;-60
2023/05/25 03:08:09;;;;;;;32.42;15.57;;;;;;;;;;5028217;28;20473;-61
2023/05/25 03:10:34;;;;;;;24.52;14.18;;;;;;;;;;5045856;28;20017;-61
2023/05/25 03:12:59;;;;;;;25.50;14.80;;;;;;;;;;5046020;28;20128;-60
2023/05/25 03:15:25;;;;;;;31.40;14.23;;;;;;;;;;5045897;28;20075;-61
2023/05/25 03:17:50;;;;;;;27.42;15.38;;;;;;;;;;5046313;28;20025;-61
2023/05/25 03:20:15;;;;;;;27.35;14.32;;;;;;;;;;5034966;28;20472;-60
2023/05/25 03:22:42;;;;;;;28.00;15.18;;;;;;;;;;5065540;28;20032;-61
2023/05/25 03:25:07;;;;;;;26.50;15.25;;;;;;;;;;5031000;28;20147;-60
2023/05/25 03:27:32;;;;;;;27.27;14.30;;;;;;;;;;4993665;28;20496;-59
2023/05/25 03:29:58;;;;;;;29.80;14.98;;;;;;;;;;5046137;28;20060;-61
2023/05/25 03:32:23;;;;;;;29.10;13.07;;;;;;;;;;5045152;28;20116;-60
2023/05/25 03:34:48;;;;;;;24.90;13.82;;;;;;;;;;5045662;28;20258;-60
2023/05/25 03:37:13;;;;;;;27.15;15.23;;;;;;;;;;4993953;28;20064;-60
2023/05/25 03:39:39;;;;;;;26.25;15.05;;;;;;;;;;5045350;28;20529;-61
2023/05/25 03:42:05;;;;;;;28.23;15.10;;;;;;;;;;5046188;28;20028;-60
2023/05/25 03:44:30;;;;;;;29.73;15.20;;;;;;;;;;4993778;28;20040;-61
2023/05/25 03:46:56;;;;;;;24.42;14.20;;;;;;;;;;5045302;28;20029;-60
2023/05/25 03:49:21;;;;;;;35.63;15.73;;;;;;;;;;5044978;28;20461;-61
2023/05/25 03:51:46;;;;;;;36.17;16.65;;;;;;;;;;5044873;28;20274;-60
2023/05/25 03:54:11;;;;;;;29.25;15.48;;;;;;;;;;5045458;28;20453;-59
2023/05/25 03:56:37;;;;;;;32.05;17.52;;;;;;;;;;5044954;28;20449;-60
2023/05/25 03:59:02;;;;;;;30.58;15.77;;;;;;;;;;5044962;28;20017;-61
2023/05/25 04:01:46;;;;;;;29.40;14.40;;;;;;;;;;4993167;28;20040;-61
2023/05/25 04:04:11;;;;;;;26.98;14.75;;;;;;;;;;5045258;28;20031;-59
2023/05/25 04:06:37;;;;;;;26.27;14.65;;;;;;;;;;5044978;28;20052;-61
2023/05/25 04:09:03;;;;;;;31.63;18.20;;;;;;;;;;5045135;28;20020;-61
2023/05/25 04:11:29;;;;;;;33.10;16.98;;;;;;;;;;5044837;28;20487;-60
2023/05/25 04:13:54;;;;;;;28.05;15.68;;;;;;;;;;5044725;28;20021;-61
2023/05/25 04:16:20;;;;;;;31.98;17.25;;;;;;;;;;5044962;28;20029;-60
2023/05/25 04:18:45;;;;;;;27.08;15.63;;;;;;;;;;4993443;28;20037;-60
2023/05/25 04:21:11;;;;;;;26.15;15.38;;;;;;;;;;5060885;28;20486;-61
2023/05/25 04:23:36;;;;;;;25.60;15.27;;;;;;;;;;5060462;28;20385;-59
2023/05/25 04:26:02;;;;;;;34.47;14.25;;;;;;;;;;5044892;28;20337;-61
2023/05/25 04:28:27;;;;;;;22.92;13.10;;;;;;;;;;5044570;28;20457;-61
2023/05/25 04:30:55;;;;;;;29.55;15.40;;;;;;;;;;5008976;28;20060;-61
2023/05/25 04:33:21;;;;;;;27.00;14.37;;;;;;;;;;5044532;28;20492;-61
2023/05/25 04:35:47;;;;;;;32.42;14.95;;;;;;;;;;5044703;28;20017;-61
2023/05/25 04:38:16;;;;;;;28.27;14.63;;;;;;;;;;5044614;28;20013;-60
2023/05/25 04:40:41;;;;;;;25.27;14.10;;;;;;;;;;5045021;28;20024;-61
2023/05/25 04:43:08;;;;;;;19.58;12.60;;;;;;;;;;5044587;28;20098;-61
2023/05/25 04:45:34;;;;;;;23.88;12.30;;;;;;;;;;5044262;28;20023;-61
2023/05/25 04:48:00;;;;;;;23.98;12.50;;;;;;;;;;5044439;28;20021;-58
2023/05/25 04:50:25;;;;;;;28.33;11.68;;;;;;;;;;5026836;28;20024;-60
2023/05/25 04:52:51;;;;;;;23.40;12.27;;;;;;;;;;5044574;28;20043;-61
2023/05/25 04:55:16;;;;;;;21.13;12.33;;;;;;;;;;5044389;28;20246;-61
2023/05/25 04:57:41;;;;;;;25.08;13.20;;;;;;;;;;5043918;28;20238;-61
2023/05/25 05:00:09;;;;;;;21.38;13.57;;;;;;;;;;5044817;28;20107;-60
2023/05/25 05:02:34;;;;;;;24.48;13.10;;;;;;;;;;5043646;28;20116;-60
2023/05/25 05:05:00;;;;;;;26.95;13.85;;;;;;;;;;5044485;28;20165;-60
2023/05/25 05:07:25;;;;;;;27.35;14.15;;;;;;;;;;5044563;28;20138;-60
2023/05/25 05:09:50;;;;;;;24.83;14.00;;;;;;;;;;5044136;28;20055;-63
2023/05/25 05:12:16;;;;;;;23.48;13.57;;;;;;;;;;5044241;28;20270;-62
2023/05/25 05:14:41;;;;;;;25.37;13.67;;;;;;;;;;5044109;28;20013;-62
2023/05/25 05:17:06;;;;;;;26.67;14.25;;;;;;;;;;5043069;28;20851;-61
2023/05/25 05:19:32;;;;;;;21.67;13.57;;;;;;;;;;5043819;28;20060;-61
2023/05/25 05:21:57;;;;;;;23.52;12.32;;;;;;;;;;5061929;28;20028;-61
2023/05/25 05:24:23;;;;;;;26.38;14.45;;;;;;;;;;5014922;28;20112;-61
2023/05/25 05:26:48;;;;;;;28.02;13.23;;;;;;;;;;5041929;28;20108;-61
2023/05/25 05:29:14;;;;;;;27.48;13.40;;;;;;;;;;5043815;28;20032;-60
2023/05/25 05:31:39;;;;;;;23.38;12.88;;;;;;;;;;5043905;28;20071;-59
2023/05/25 05:34:04;;;;;;;22.63;12.93;;;;;;;;;;5043601;28;20028;-58
2023/05/25 05:36:32;;;;;;;20.27;12.77;;;;;;;;;;5047752;28;20254;-60
2023/05/25 05:38:57;;;;;;;19.45;12.02;;;;;;;;;;5054746;28;20021;-60
2023/05/25 05:41:22;;;;;;;23.23;12.90;;;;;;;;;;5044604;28;20031;-61
2023/05/25 05:43:48;;;;;;;29.02;12.95;;;;;;;;;;5049195;28;20027;-61
2023/05/25 05:46:13;;;;;;;24.10;12.37;;;;;;;;;;5050098;28;20388;-61
2023/05/25 05:48:38;;;;;;;20.08;12.20;;;;;;;;;;5041838;28;20319;-61
2023/05/25 05:51:04;;;;;;;26.15;12.40;;;;;;;;;;5002609;28;20120;-61
2023/05/25 05:53:29;;;;;;;29.63;14.13;;;;;;;;;;5041080;28;20603;-61
2023/05/25 05:55:57;;;;;;;20.38;12.95;;;;;;;;;;5011955;28;20056;-61
2023/05/25 05:58:25;;;;;;;22.73;12.67;;;;;;;;;;5048620;28;20392;-59
2023/05/25 06:00:50;;;;;;;22.77;12.13;;;;;;;;;;5048151;28;20356;-60
2023/05/25 06:03:16;;;;;;;22.90;11.95;;;;;;;;;;5048926;28;20157;-61
2023/05/25 06:05:41;;;;;;;21.70;12.77;;;;;;;;;;5043253;28;20538;-60
2023/05/25 06:08:08;;;;;;;25.73;11.83;;;;;;;;;;5033362;28;20312;-58
2023/05/25 06:10:34;;;;;;;24.85;12.25;;;;;;;;;;5053600;28;20753;-60
2023/05/25 06:12:59;;;;;;;21.63;11.80;;;;;;;;;;5050052;28;20078;-61
2023/05/25 06:15:24;;;;;;;27.53;12.70;;;;;;;;;;5045063;28;20266;-62
2023/05/25 06:17:49;;;;;;;18.90;10.40;;;;;;;;;;4999883;28;20335;-62
2023/05/25 06:20:15;;;;;;;21.83;11.13;;;;;;;;;;5049796;28;21660;-63
2023/05/25 06:22:40;;;;;;;30.13;10.90;;;;;;;;;;5056152;28;20285;-62
2023/05/25 06:25:05;;;;;;;23.65;11.57;;;;;;;;;;5052729;28;20568;-61
2023/05/25 06:27:31;;;;;;;28.33;11.68;;;;;;;;;;5061049;28;20665;-61
2023/05/25 06:29:56;;;;;;;26.87;13.40;;;;;;;;;;5057301;28;20036;-62
2023/05/25 06:32:21;;;;;;;23.25;12.05;;;;;;;;;;5045037;28;20150;-60
2023/05/25 06:34:46;;;;;;;25.07;12.17;;;;;;;;;;5044691;28;20086;-56
2023/05/25 06:37:13;;;;;;;19.70;11.30;;;;;;;;;;5046879;28;20661;-58
2023/05/25 06:39:39;;;;;;;22.08;12.18;;;;;;;;;;5047888;28;20025;-56
2023/05/25 06:42:04;;;;;;;26.13;11.57;;;;;;;;;;5038384;28;20043;-58
2023/05/25 06:44:30;;;;;;;16.45;9.82;;;;;;;;;;5059027;28;20630;-56
2023/05/25 06:46:55;;;;;;;17.30;10.00;;;;;;;;;;5047651;28;20025;-58
2023/05/25 06:49:20;;;;;;;15.43;9.53;;;;;;;;;;5044395;28;20021;-59
2023/05/25 06:51:46;;;;;;;15.43;10.05;;;;;;;;;;5053460;28;20332;-58
2023/05/25 06:54:13;;;;;;;21.30;11.07;;;;;;;;;;5045563;28;20040;-59
2023/05/25 06:56:38;;;;;;;13.30;9.05;;;;;;;;;;5057121;28;20242;-58
2023/05/25 06:59:04;;;;;;;17.52;10.02;;;;;;;;;;5050517;28;20131;-60
2023/05/25 07:01:29;;;;;;;17.67;10.32;;;;;;;;;;5056110;28;20035;-60
2023/05/25 07:03:55;;;;;;;18.95;11.02;;;;;;;;;;5044227;28;20116;-59
2023/05/25 07:06:20;;;;;;;20.07;10.93;;;;;;;;;;5045084;28;20053;-60
2023/05/25 07:08:45;;;;;;;21.47;10.50;;;;;;;;;;5046567;28;20739;-60
2023/05/25 07:11:12;;;;;;;15.53;9.40;;;;;;;;;;5053451;28;20246;-60
2023/05/25 07:13:38;;;;;;;17.90;9.48;;;;;;;;;;5054407;28;20430;-60
2023/05/25 07:16:03;;;;;;;18.33;9.85;;;;;;;;;;5054260;28;20039;-60
2023/05/25 07:18:29;;;;;;;17.05;9.07;;;;;;;;;;5051157;28;20110;-60
2023/05/25 07:20:54;;;;;;;19.25;9.50;;;;;;;;;;5043897;28;20090;-61
2023/05/25 07:23:19;;;;;;;16.73;9.20;;;;;;;;;;5045424;28;20028;-59
2023/05/25 07:25:45;;;;;;;17.77;9.52;;;;;;;;;;5047680;28;20270;-59
2023/05/25 07:28:10;;;;;;;13.70;9.65;;;;;;;;;;5047763;28;20013;-59
2023/05/25 07:30:35;;;;;;;17.10;8.27;;;;;;;;;;5045965;28;20040;-59
2023/05/25 07:33:00;;;;;;;16.73;7.83;;;;;;;;;;5047075;28;20779;-60
2023/05/25 07:35:26;;;;;;;16.47;9.23;;;;;;;;;;5048262;28;20250;-57
2023/05/25 07:37:58;;;;;;;13.30;8.37;;;;;;;;;;5058597;28;20251;-59
2023/05/25 07:40:23;;;;;;;15.30;8.88;;;;;;;;;;5050583;28;20290;-60
2023/05/25 07:42:48;;;;;;;19.48;9.07;;;;;;;;;;5051080;28;20109;-60
2023/05/25 07:45:15;;;;;;;35.97;9.03;;;;;;;;;;5055445;28;20021;-59
2023/05/25 07:47:40;;;;;;;18.35;8.35;;;;;;;;;;5047216;28;20394;-59
2023/05/25 07:50:05;;;;;;;13.93;8.37;;;;;;;;;;5041199;28;20061;-60
2023/05/25 07:52:31;;;;;;;12.65;8.27;;;;;;;;;;5045139;28;20280;-60
2023/05/25 07:54:56;;;;;;;12.60;8.03;;;;;;;;;;5048594;28;20032;-61
2023/05/25 07:57:21;;;;;;;11.97;7.97;;;;;;;;;;5048521;28;20048;-61
2023/05/25 07:59:46;;;;;;;22.23;8.48;;;;;;;;;;5005708;28;20356;-60
2023/05/25 08:02:12;;;;;;;14.63;7.03;;;;;;;;;;5044698;28;20037;-60
2023/05/25 08:04:37;;;;;;;16.83;7.40;;;;;;;;;;5045759;28;20254;-60
2023/05/25 08:07:03;;;;;;;15.85;8.32;;;;;;;;;;5001263;28;20797;-62
2023/05/25 08:09:28;;;;;;;13.57;8.50;;;;;;;;;;5049675;28;20752;-61
2023/05/25 08:11:53;;;;;;;13.55;7.57;;;;;;;;;;5056096;28;20036;-59
2023/05/25 08:14:19;;;;;;;16.07;8.50;;;;;;;;;;5042986;28;20017;-61
2023/05/25 08:16:45;;;;;;;13.85;7.28;;;;;;;;;;5044732;28;20013;-59
2023/05/25 08:19:10;;;;;;;17.93;7.63;;;;;;;;;;5045905;28;20346;-61
2023/05/25 08:21:36;;;;;;;14.20;7.30;;;;;;;;;;5050273;28;20021;-61
2023/05/25 08:24:07;;;;;;;16.67;8.52;;;;;;;;;;5051349;28;20262;-58
2023/05/25 08:26:35;;;;;;;12.85;7.57;;;;;;;;;;5044862;28;20029;-60
2023/05/25 08:29:01;;;;;;;10.02;6.50;;;;;;;;;;5046768;28;20013;-59
2023/05/25 08:31:26;;;;;;;9.77;6.93;;;;;;;;;;5051057;28;20543;-58
2023/05/25 08:33:51;;;;;;;10.63;7.10;;;;;;;;;;5045020;28;20035;-58
2023/05/25 08:36:16;;;;;;;11.00;6.60;;;;;;;;;;5042922;28;20250;-58
2023/05/25 08:38:42;;;;;;;24.97;7.73;;;;;;;;;;5044138;28;20032;-58
2023/05/25 08:41:07;;;;;;;15.70;6.97;;;;;;;;;;5042532;28;20021;-59
2023/05/25 08:43:33;;;;;;;14.85;7.07;;;;;;;;;;5050642;28;20253;-58
2023/05/25 08:46:05;;;;;;;12.45;6.72;;;;;;;;;;5052129;28;20025;-59
2023/05/25 08:48:31;;;;;;;7.88;5.60;;;;;;;;;;5040589;28;20175;-59
2023/05/25 08:51:00;;;;;;;14.48;7.25;;;;;;;;;;5041062;28;20080;-59
2023/05/25 08:53:27;;;;;;;10.90;6.40;;;;;;;;;;5050336;28;20037;-59
2023/05/25 08:55:54;;;;;;;13.15;6.45;;;;;;;;;;5040102;28;20043;-59
2023/05/25 08:58:22;;;;;;;14.43;7.20;;;;;;;;;;5044106;28;20447;-59
2023/05/25 09:00:54;;;;;;;19.48;7.95;;;;;;;;;;5049921;28;20362;-61
2023/05/25 09:03:20;;;;;;;14.07;6.93;;;;;;;;;;5042738;28;20037;-59
2023/05/25 09:05:46;;;;;;;14.98;7.65;;;;;;;;;;5044180;28;20688;-57
2023/05/25 09:08:12;;;;;;;15.18;7.55;;;;;;;;;;5052804;28;20032;-59
2023/05/25 09:10:38;;;;;;;19.05;8.30;;;;;;;;;;5046955;28;20032;-57
2023/05/25 09:13:03;;;;;;;15.02;8.30;;;;;;;;;;5048361;28;20033;-58
2023/05/25 09:15:29;;;;;;;16.38;8.30;;;;;;;;;;5043080;28;20025;-58
2023/05/25 09:17:55;;;;;;;25.30;10.35;;;;;;;;;;5044294;28;20028;-57
2023/05/25 09:20:20;;;;;;;16.47;9.03;;;;;;;;;;5045910;28;20029;-58
2023/05/25 09:22:46;;;;;;;16.27;9.53;;;;;;;;;;5043639;28;20686;-57
2023/05/25 09:25:13;;;;;;;19.75;8.65;;;;;;;;;;5048972;28;20269;-56
2023/05/25 09:27:38;;;;;;;17.85;8.93;;;;;;;;;;5037685;28;20687;-58
2023/05/25 09:30:04;;;;;;;15.15;8.85;;;;;;;;;;5057084;28;20078;-58
2023/05/25 09:32:29;;;;;;;17.08;8.70;;;;;;;;;;5054335;28;20247;-58
2023/05/25 09:34:56;;;;;;;14.38;8.45;;;;;;;;;;5056439;28;20486;-58
2023/05/25 09:37:22;;;;;;;18.08;8.25;;;;;;;;;;5043806;28;20254;-58
2023/05/25 09:39:50;;;;;;;17.50;8.88;;;;;;;;;;5038874;28;20252;-58
2023/05/25 09:42:15;;;;;;;17.13;8.18;;;;;;;;;;5037263;28;20029;-58
2023/05/25 09:44:41;;;;;;;14.90;8.60;;;;;;;;;;5020366;28;20459;-58
2023/05/25 09:47:07;;;;;;;13.02;8.10;;;;;;;;;;5023251;28;20404;-58
2023/05/25 09:49:34;;;;;;;15.73;8.07;;;;;;;;;;5046087;28;20470;-60
2023/05/25 09:51:59;;;;;;;14.52;8.70;;;;;;;;;;5058256;28;20040;-56
2023/05/25 09:54:25;;;;;;;11.77;7.15;;;;;;;;;;5066691;28;20522;-57
2023/05/25 09:56:51;;;;;;;20.23;7.45;;;;;;;;;;5062629;28;20013;-55
2023/05/25 09:59:16;;;;;;;8.73;6.45;;;;;;;;;;5051208;28;20124;-57
2023/05/25 10:01:43;;;;;;;12.57;5.73;;;;;;;;;;5062968;28;20298;-56
2023/05/25 10:04:08;;;;;;;9.48;5.72;;;;;;;;;;5036477;28;20025;-56
2023/05/25 10:06:33;;;;;;;8.17;4.70;;;;;;;;;;5047059;28;20686;-57
2023/05/25 10:08:59;;;;;;;7.25;4.63;;;;;;;;;;5046813;28;20254;-52
2023/05/25 10:11:26;;;;;;;7.25;4.68;;;;;;;;;;5046577;28;20103;-57
2023/05/25 10:13:52;;;;;;;8.20;5.15;;;;;;;;;;5046558;28;20430;-56
2023/05/25 10:16:17;;;;;;;7.78;5.10;;;;;;;;;;5057925;28;20032;-59
2023/05/25 10:18:46;;;;;;;10.23;5.17;;;;;;;;;;5046962;28;20527;-57
2023/05/25 10:21:12;;;;;;;14.02;5.18;;;;;;;;;;5062577;28;20646;-57
2023/05/25 10:23:40;;;;;;;8.88;4.97;;;;;;;;;;5064315;28;20028;-58
2023/05/25 10:26:07;;;;;;;8.65;5.00;;;;;;;;;;5066416;28;20048;-55
2023/05/25 10:28:34;;;;;;;11.18;5.30;;;;;;;;;;5061513;28;20360;-57
2023/05/25 10:31:00;;;;;;;8.73;4.93;;;;;;;;;;5051533;28;20037;-57
2023/05/25 10:33:26;;;;;;;8.23;5.63;;;;;;;;;;5052112;28;20356;-55
2023/05/25 10:35:53;;;;;;;10.60;5.35;;;;;;;;;;5048741;28;20796;-57
2023/05/25 10:38:18;;;;;;;7.40;4.85;;;;;;;;;;5057504;28;20063;-57
2023/05/25 10:40:46;;;;;;;12.85;5.20;;;;;;;;;;5058953;28;20016;-57
2023/05/25 10:43:12;;;;;;;8.80;4.78;;;;;;;;;;5043366;28;20743;-56
2023/05/25 10:45:38;;;;;;;9.00;4.70;;;;;;;;;;5063004;28;20036;-57
2023/05/25 10:48:03;;;;;;;6.10;4.15;;;;;;;;;;5051433;28;20043;-58
2023/05/25 10:50:33;;;;;;;8.40;4.63;;;;;;;;;;5058432;28;20472;-57
2023/05/25 10:53:04;;;;;;;6.63;4.15;;;;;;;;;;5053903;28;20411;-55
2023/05/25 10:55:43;;;;;;;8.00;3.97;;;;;;;;;;5063797;28;20024;-57
2023/05/25 10:58:11;;;;;;;7.78;4.60;;;;;;;;;;5045839;28;20033;-57
2023/05/25 11:00:37;;;;;;;6.97;4.72;;;;;;;;;;5050092;28;20040;-56
2023/05/25 11:03:03;;;;;;;7.00;4.05;;;;;;;;;;5060032;28;20376;-57
2023/05/25 11:05:32;;;;;;;5.10;4.15;;;;;;;;;;5046070;28;20056;-58
2023/05/25 11:07:58;;;;;;;7.35;4.78;;;;;;;;;;5057782;28;20047;-57
2023/05/25 11:10:43;;;;;;;18.52;7.60;;;;;;;;;;5056580;28;20025;-57
2023/05/25 11:13:35;;;;;;;10.30;5.57;;;;;;;;;;5063265;28;20074;-57
2023/05/25 11:16:19;;;;;;;5.90;4.15;;;;;;;;;;4957791;28;20042;-58
2023/05/25 11:18:48;;;;;;;10.95;4.47;;;;;;;;;;4956978;28;20029;-57
2023/05/25 11:21:25;;;;;;;6.07;4.28;;;;;;;;;;4957065;28;20043;-59
2023/05/25 11:24:05;;;;;;;7.03;4.13;;;;;;;;;;4953994;28;20106;-57
2023/05/25 11:26:34;;;;;;;6.55;4.20;;;;;;;;;;4905906;29;20072;-57
2023/05/25 11:28:59;;;;;;;;;;;;;;;;;;4906841;29;20430;-58
2023/05/25 11:31:31;;;;;;;8.97;4.43;;;;;;;;;;4902805;29;19911;-58
2023/05/25 11:33:57;;;;;;;14.50;4.88;;;;;;;;;;4901046;29;20147;-58
2023/05/25 11:36:23;;;;;;;9.05;5.03;;;;;;;;;;4901748;29;20503;-57
2023/05/25 11:38:50;;;;;;;13.23;5.40;;;;;;;;;;4903771;29;20027;-58
2023/05/25 11:41:17;;;;;;;9.25;5.32;;;;;;;;;;4897189;29;20134;-58
2023/05/25 11:43:43;;;;;;;9.82;4.32;;;;;;;;;;4898841;29;20028;-57
2023/05/25 11:46:09;;;;;;;8.15;4.30;;;;;;;;;;4904685;29;20048;-58
2023/05/25 11:48:35;;;;;;;8.25;5.55;;;;;;;;;;4903560;29;20106;-58
2023/05/25 11:51:04;;;;;;;9.73;4.80;;;;;;;;;;4902870;29;20144;-56
2023/05/25 11:53:29;;;;;;;9.73;4.75;;;;;;;;;;4967152;28;20105;-57
2023/05/25 11:55:55;;;;;;;11.95;4.95;;;;;;;;;;4999513;28;20069;-57
2023/05/25 11:58:20;;;;;;;11.03;6.00;;;;;;;;;;5035601;28;20045;-57
2023/05/25 12:00:45;;;;;;;12.53;5.67;;;;;;;;;;5044378;28;20367;-56
2023/05/25 12:03:27;;;;;;;11.30;4.80;;;;;;;;;;5031321;28;20797;-58
2023/05/25 12:05:52;;;;;;;7.47;4.80;;;;;;;;;;5055752;28;20295;-57
2023/05/25 12:08:30;;;;;;;6.33;4.53;;;;;;;;;;5055332;28;20037;-55
2023/05/25 12:10:55;;;;;;;8.05;4.47;;;;;;;;;;5051382;28;20755;-57
2023/05/25 12:13:21;;;;;;;15.00;6.20;;;;;;;;;;5049415;28;20025;-59
2023/05/25 12:15:47;;;;;;;9.63;5.10;;;;;;;;;;5049823;28;20055;-57
2023/05/25 12:18:12;;;;;;;8.95;5.22;;;;;;;;;;5051448;28;20044;-58
2023/05/25 12:20:40;;;;;;;10.77;4.50;;;;;;;;;;5047117;28;20120;-59
2023/05/25 12:23:05;;;;;;;8.98;4.50;;;;;;;;;;5039532;28;20016;-58
2023/05/25 12:25:30;;;;;;;8.23;5.07;;;;;;;;;;5049407;28;20040;-58
2023/05/25 12:28:09;;;;;;;12.77;4.70;;;;;;;;;;5010613;28;20068;-58
2023/05/25 12:30:34;;;;;;;8.30;4.85;;;;;;;;;;5051846;28;20851;-58
2023/05/25 12:33:01;;;;;;;7.37;4.67;;;;;;;;;;5052048;28;20032;-58
2023/05/25 12:35:26;;;;;;;19.42;6.03;;;;;;;;;;5044241;28;20361;-58
2023/05/25 12:38:12;;;;;;;8.07;4.40;;;;;;;;;;5060294;28;20111;-57
2023/05/25 12:40:37;;;;;;;7.43;4.18;;;;;;;;;;5051284;28;20056;-57
2023/05/25 12:43:02;;;;;;;9.93;4.22;;;;;;;;;;5053032;28;20067;-58
2023/05/25 12:45:27;;;;;;;51.92;5.28;;;;;;;;;;4996262;28;20025;-59
2023/05/25 12:47:53;;;;;;;8.95;4.28;;;;;;;;;;5044249;28;20028;-58
2023/05/25 12:50:18;;;;;;;8.77;4.17;;;;;;;;;;5047441;28;20456;-59
2023/05/25 12:52:45;;;;;;;7.53;4.70;;;;;;;;;;5060980;28;20312;-58
2023/05/25 12:55:26;;;;;;;8.68;4.00;;;;;;;;;;5051022;28;20469;-59
2023/05/25 12:57:52;;;;;;;24.30;4.70;;;;;;;;;;5049280;28;20031;-57
2023/05/25 13:00:27;;;;;;;9.77;4.20;;;;;;;;;;5046465;28;20124;-57
2023/05/25 13:02:52;;;;;;;9.48;4.57;;;;;;;;;;5048884;28;20544;-58
2023/05/25 13:05:24;;;;;;;7.68;3.83;;;;;;;;;;5048119;28;20119;-58
2023/05/25 13:07:50;;;;;;;7.60;5.00;;;;;;;;;;5051226;28;20396;-56
2023/05/25 13:10:16;;;;;;;22.55;5.70;;;;;;;;;;5059806;28;20140;-58
2023/05/25 13:12:42;;;;;;;15.02;5.22;;;;;;;;;;5055428;28;20041;-58
2023/05/25 13:15:07;;;;;;;10.10;5.30;;;;;;;;;;5049071;28;20056;-55
2023/05/25 13:17:33;;;;;;;13.07;5.38;;;;;;;;;;5052295;28;20024;-57
2023/05/25 13:19:58;;;;;;;8.90;4.85;;;;;;;;;;5052606;28;20029;-59
2023/05/25 13:22:24;;;;;;;6.97;4.70;;;;;;;;;;5044948;28;20110;-56
2023/05/25 13:24:49;;;;;;;10.07;5.25;;;;;;;;;;5042261;28;20733;-57
2023/05/25 13:27:15;;;;;;;10.25;4.90;;;;;;;;;;5053308;28;20696;-59
2023/05/25 13:29:40;;;;;;;7.80;4.07;;;;;;;;;;5055548;28;20023;-59
2023/05/25 13:32:05;;;;;;;9.60;4.68;;;;;;;;;;5046535;28;20375;-57
2023/05/25 13:34:32;;;;;;;6.25;4.10;;;;;;;;;;5044892;28;20422;-59
2023/05/25 13:36:58;;;;;;;7.88;4.43;;;;;;;;;;5045087;28;20020;-59
2023/05/25 13:39:23;;;;;;;8.50;4.03;;;;;;;;;;5045407;28;20028;-58
2023/05/25 13:41:48;;;;;;;10.18;4.30;;;;;;;;;;5047638;28;20040;-59
2023/05/25 13:44:14;;;;;;;9.13;4.53;;;;;;;;;;5049317;28;20074;-58
2023/05/25 13:46:39;;;;;;;9.85;4.03;;;;;;;;;;5042210;28;20325;-59
2023/05/25 13:49:05;;;;;;;7.37;3.80;;;;;;;;;;5042843;28;20087;-57
2023/05/25 13:51:30;;;;;;;10.00;4.18;;;;;;;;;;5050437;28;20332;-58
2023/05/25 13:53:55;;;;;;;9.55;3.97;;;;;;;;;;4998746;28;20534;-57
2023/05/25 13:56:21;;;;;;;5.77;4.13;;;;;;;;;;5043466;28;20305;-59
2023/05/25 13:58:46;;;;;;;6.53;4.30;;;;;;;;;;5042824;28;20265;-59
2023/05/25 14:01:11;;;;;;;7.65;4.25;;;;;;;;;;5056868;28;20028;-58
2023/05/25 14:03:37;;;;;;;6.77;4.00;;;;;;;;;;5061674;28;20024;-58
2023/05/25 14:06:03;;;;;;;21.25;6.72;;;;;;;;;;5043800;28;20706;-58
2023/05/25 14:08:29;;;;;;;6.90;3.88;;;;;;;;;;5042942;28;20485;-59
2023/05/25 14:10:54;;;;;;;11.43;4.45;;;;;;;;;;5046656;28;20013;-58
2023/05/25 14:13:19;;;;;;;7.05;4.45;;;;;;;;;;5048932;28;20029;-58
2023/05/25 14:15:45;;;;;;;6.03;3.63;;;;;;;;;;5043775;28;20048;-58